createdAt,value
2019-01-30T00:01:25.197Z,-2.80
2019-01-30T00:03:54.419Z,-2.80
2019-01-30T00:06:23.463Z,-2.80
2019-01-30T00:08:53.166Z,-2.80
2019-01-30T00:11:22.282Z,-2.80
2019-01-30T00:13:51.615Z,-2.80
2019-01-30T00:16:20.586Z,-2.90
2019-01-30T00:18:50.465Z,-2.90
2019-01-30T00:21:19.509Z,-3.00
2019-01-30T00:23:48.482Z,-3.00
2019-01-30T00:26:17.493Z,-3.00
2019-01-30T00:28:46.562Z,-3.10
2019-01-30T00:31:15.540Z,-3.10
2019-01-30T00:33:44.482Z,-3.20
2019-01-30T00:36:13.715Z,-3.20
2019-01-30T00:38:43.313Z,-3.20
2019-01-30T00:41:12.810Z,-3.20
2019-01-30T00:43:41.663Z,-3.20
2019-01-30T00:46:10.666Z,-3.20
2019-01-30T00:48:39.915Z,-3.00
2019-01-30T00:51:09.307Z,-3.00
2019-01-30T00:53:38.326Z,-3.10
2019-01-30T00:56:07.355Z,-3.10
2019-01-30T00:58:36.271Z,-3.20
2019-01-30T01:01:06.312Z,-3.20
2019-01-30T01:03:35.303Z,-3.10
2019-01-30T01:06:04.609Z,-3.20
2019-01-30T01:08:33.617Z,-3.30
2019-01-30T01:11:02.689Z,-3.30
2019-01-30T01:13:34.050Z,-3.30
2019-01-30T01:16:03.098Z,-3.30
2019-01-30T01:18:32.028Z,-3.30
2019-01-30T01:21:01.039Z,-3.30
2019-01-30T01:23:30.022Z,-3.30
2019-01-30T01:25:59.270Z,-3.30
2019-01-30T01:28:28.265Z,-3.30
2019-01-30T01:30:57.526Z,-3.40
2019-01-30T01:33:28.422Z,-3.50
2019-01-30T01:35:58.047Z,-3.50
2019-01-30T01:38:26.975Z,-3.50
2019-01-30T01:40:56.005Z,-3.60
2019-01-30T01:43:24.946Z,-3.60
2019-01-30T01:45:54.083Z,-3.60
2019-01-30T01:48:23.013Z,-3.50
2019-01-30T01:50:51.963Z,-3.40
2019-01-30T01:53:21.290Z,-3.40
2019-01-30T01:55:50.671Z,-3.30
2019-01-30T01:58:19.593Z,-3.20
2019-01-30T02:00:48.707Z,-3.10
2019-01-30T02:03:17.693Z,-3.10
2019-01-30T02:05:46.839Z,-3.10
2019-01-30T02:08:16.062Z,-2.90
2019-01-30T02:10:45.311Z,-3.00
2019-01-30T02:13:14.255Z,-3.00
2019-01-30T02:15:43.510Z,-3.00
2019-01-30T02:18:12.531Z,-3.00
2019-01-30T02:20:41.554Z,-3.00
2019-01-30T02:23:10.627Z,-3.00
2019-01-30T02:25:39.930Z,-3.00
2019-01-30T02:28:08.987Z,-3.00
2019-01-30T02:30:47.179Z,-3.10
2019-01-30T02:33:09.219Z,-3.10
2019-01-30T02:35:38.570Z,-3.00
2019-01-30T02:38:07.553Z,-3.00
2019-01-30T02:40:36.493Z,-3.00
2019-01-30T02:43:05.862Z,-3.10
2019-01-30T02:45:34.851Z,-3.10
2019-01-30T02:48:03.999Z,-3.10
2019-01-30T02:50:34.982Z,-3.10
2019-01-30T02:53:03.595Z,-3.20
2019-01-30T02:55:32.523Z,-3.20
2019-01-30T02:58:01.474Z,-3.30
2019-01-30T03:00:32.651Z,-3.30
2019-01-30T03:03:01.590Z,-3.40
2019-01-30T03:05:31.093Z,-3.30
2019-01-30T03:08:00.516Z,-3.30
2019-01-30T03:10:29.431Z,-3.30
2019-01-30T03:12:58.384Z,-3.30
2019-01-30T03:15:27.368Z,-3.20
2019-01-30T03:17:56.722Z,-3.20
2019-01-30T03:20:26.427Z,-3.20
2019-01-30T03:22:55.506Z,-3.20
2019-01-30T03:25:25.106Z,-3.20
2019-01-30T03:27:54.820Z,-3.00
2019-01-30T03:30:28.986Z,-3.00
2019-01-30T03:32:58.470Z,-3.00
2019-01-30T03:35:27.454Z,-3.00
2019-01-30T03:37:56.677Z,-3.00
2019-01-30T03:40:25.745Z,-2.90
2019-01-30T03:42:55.187Z,-3.00
2019-01-30T03:45:24.817Z,-3.00
2019-01-30T03:47:53.886Z,-3.00
2019-01-30T03:50:22.884Z,-3.00
2019-01-30T03:52:51.978Z,-2.90
2019-01-30T03:55:21.159Z,-3.00
2019-01-30T03:57:50.192Z,-3.00
2019-01-30T04:00:24.278Z,-3.00
2019-01-30T04:02:53.593Z,-3.00
2019-01-30T04:05:22.654Z,-2.90
2019-01-30T04:07:52.137Z,-2.90
2019-01-30T04:10:22.624Z,-2.90
2019-01-30T04:12:52.002Z,-2.90
2019-01-30T04:15:21.760Z,-2.90
2019-01-30T04:17:51.381Z,-2.90
2019-01-30T04:20:21.182Z,-2.90
2019-01-30T04:22:50.582Z,-2.80
2019-01-30T04:25:19.929Z,-2.80
2019-01-30T04:27:49.006Z,-2.80
2019-01-30T04:30:20.272Z,-2.80
2019-01-30T04:32:49.897Z,-2.80
2019-01-30T04:35:19.175Z,-2.80
2019-01-30T04:37:48.209Z,-2.80
2019-01-30T04:40:18.593Z,-2.80
2019-01-30T04:42:47.944Z,-2.80
2019-01-30T04:45:22.603Z,-2.80
2019-01-30T04:47:51.626Z,-2.80
2019-01-30T04:50:20.992Z,-2.80
2019-01-30T04:52:50.080Z,-2.80
2019-01-30T04:55:19.452Z,-2.80
2019-01-30T04:57:49.104Z,-2.80
2019-01-30T05:00:20.759Z,-2.90
2019-01-30T05:02:49.850Z,-2.90
2019-01-30T05:05:19.237Z,-2.90
2019-01-30T05:07:48.263Z,-2.90
2019-01-30T05:10:17.642Z,-2.90
2019-01-30T05:12:46.722Z,-2.90
2019-01-30T05:15:18.391Z,-2.90
2019-01-30T05:17:47.746Z,-2.90
2019-01-30T05:20:18.034Z,-2.90
2019-01-30T05:22:47.113Z,-2.90
2019-01-30T05:25:16.516Z,-2.90
2019-01-30T05:27:45.496Z,-2.80
2019-01-30T05:30:20.662Z,-2.80
2019-01-30T05:32:49.570Z,-2.90
2019-01-30T05:35:18.578Z,-2.90
2019-01-30T05:37:47.488Z,-2.80
2019-01-30T05:40:16.843Z,-2.80
2019-01-30T05:42:45.801Z,-2.80
2019-01-30T05:45:16.118Z,-2.90
2019-01-30T05:47:45.190Z,-2.90
2019-01-30T05:50:15.101Z,-2.90
2019-01-30T05:52:44.625Z,-2.90
2019-01-30T05:55:14.144Z,-2.90
2019-01-30T05:57:43.410Z,-2.90
2019-01-30T06:00:16.130Z,-3.00
2019-01-30T06:02:45.415Z,-2.90
2019-01-30T06:05:14.847Z,-2.90
2019-01-30T06:07:43.856Z,-2.90
2019-01-30T06:10:13.207Z,-2.90
2019-01-30T06:12:42.136Z,-2.80
2019-01-30T06:15:12.391Z,-2.80
2019-01-30T06:17:41.428Z,-2.80
2019-01-30T06:20:15.246Z,-2.90
2019-01-30T06:22:44.493Z,-2.90
2019-01-30T06:25:13.507Z,-2.80
2019-01-30T06:27:42.586Z,-2.80
2019-01-30T06:30:13.447Z,-2.80
2019-01-30T06:32:42.448Z,-2.70
2019-01-30T06:35:11.951Z,-2.70
2019-01-30T06:37:40.930Z,-2.80
2019-01-30T06:40:15.767Z,-2.80
2019-01-30T06:42:44.753Z,-2.80
2019-01-30T06:45:14.334Z,-2.80
2019-01-30T06:47:43.322Z,-2.70
2019-01-30T06:50:12.729Z,-2.70
2019-01-30T06:52:41.730Z,-2.70
2019-01-30T06:55:11.239Z,-2.70
2019-01-30T06:57:40.672Z,-2.70
2019-01-30T07:00:18.087Z,-2.80
2019-01-30T07:02:47.211Z,-2.80
2019-01-30T07:05:16.299Z,-2.70
2019-01-30T07:07:45.270Z,-2.70
2019-01-30T07:10:16.969Z,-2.70
2019-01-30T07:12:45.918Z,-2.70
2019-01-30T07:15:15.101Z,-2.50
2019-01-30T07:17:44.046Z,-2.50
2019-01-30T07:20:13.904Z,-2.40
2019-01-30T07:22:42.999Z,-2.30
2019-01-30T07:25:13.910Z,-2.20
2019-01-30T07:27:45.021Z,-2.10
2019-01-30T07:30:25.573Z,-2.10
2019-01-30T07:32:54.821Z,-2.00
2019-01-30T07:35:23.777Z,-2.00
2019-01-30T07:37:52.849Z,-1.90
2019-01-30T07:40:22.178Z,-1.90
2019-01-30T07:42:51.450Z,-1.80
2019-01-30T07:45:22.369Z,-1.70
2019-01-30T07:47:51.439Z,-1.60
2019-01-30T07:50:20.556Z,-1.50
2019-01-30T07:52:49.922Z,-1.50
2019-01-30T07:55:18.909Z,-1.40
2019-01-30T07:57:48.247Z,-1.40
2019-01-30T08:00:23.110Z,-1.30
2019-01-30T08:02:53.674Z,-1.20
2019-01-30T08:05:23.521Z,-1.20
2019-01-30T08:07:52.743Z,-1.10
2019-01-30T08:10:21.821Z,-1.10
2019-01-30T08:12:51.582Z,-1.00
2019-01-30T08:15:20.707Z,-0.90
2019-01-30T08:17:49.846Z,-0.90
2019-01-30T08:20:19.939Z,-0.80
2019-01-30T08:22:49.129Z,-0.70
2019-01-30T08:25:20.548Z,-0.70
2019-01-30T08:27:50.305Z,-0.60
2019-01-30T08:30:30.158Z,-0.50
2019-01-30T08:33:04.597Z,-0.50
2019-01-30T08:35:33.050Z,-0.40
2019-01-30T08:38:02.555Z,-0.40
2019-01-30T08:40:31.832Z,-0.30
2019-01-30T08:43:00.874Z,-0.20
2019-01-30T08:45:31.375Z,-0.10
2019-01-30T08:48:00.684Z,0.00
2019-01-30T08:50:30.193Z,0.00
2019-01-30T08:52:59.926Z,0.00
2019-01-30T08:55:29.739Z,0.10
2019-01-30T08:57:59.079Z,0.20
2019-01-30T09:00:29.042Z,0.20
2019-01-30T09:02:58.132Z,0.20
2019-01-30T09:05:27.275Z,0.20
2019-01-30T09:07:56.359Z,0.20
2019-01-30T09:10:26.030Z,0.20
2019-01-30T09:12:55.105Z,0.20
2019-01-30T09:15:24.755Z,0.30
2019-01-30T09:17:53.895Z,0.30
2019-01-30T09:20:26.480Z,0.40
2019-01-30T09:22:55.671Z,0.50
2019-01-30T09:25:26.709Z,0.50
2019-01-30T09:27:55.798Z,0.50
2019-01-30T09:30:33.521Z,0.70
2019-01-30T09:33:02.607Z,0.70
2019-01-30T09:35:31.570Z,0.80
2019-01-30T09:38:00.721Z,0.80
2019-01-30T09:40:29.626Z,0.90
2019-01-30T09:42:58.811Z,1.00
2019-01-30T09:45:27.892Z,1.00
2019-01-30T09:47:56.828Z,1.10
2019-01-30T09:50:25.922Z,1.10
2019-01-30T09:52:55.550Z,1.10
2019-01-30T09:55:24.712Z,1.20
2019-01-30T09:57:53.766Z,1.30
2019-01-30T10:00:34.613Z,1.30
2019-01-30T10:03:04.140Z,1.40
2019-01-30T10:05:33.523Z,1.40
2019-01-30T10:08:03.083Z,1.50
2019-01-30T10:10:36.523Z,1.60
2019-01-30T10:13:06.124Z,1.70
2019-01-30T10:15:37.862Z,1.80
2019-01-30T10:18:07.539Z,1.80
2019-01-30T10:20:37.154Z,1.80
2019-01-30T10:23:06.519Z,1.90
2019-01-30T10:25:35.799Z,1.90
2019-01-30T10:28:15.864Z,1.90
2019-01-30T10:30:38.092Z,1.90
2019-01-30T10:33:07.227Z,1.90
2019-01-30T10:35:37.086Z,1.90
2019-01-30T10:38:06.290Z,2.00
2019-01-30T10:40:35.637Z,2.00
2019-01-30T10:43:05.055Z,2.20
2019-01-30T10:45:34.479Z,2.20
2019-01-30T10:48:03.627Z,2.30
2019-01-30T10:50:32.804Z,2.40
2019-01-30T10:53:01.932Z,2.40
2019-01-30T10:55:32.395Z,2.50
2019-01-30T10:58:03.479Z,2.50
2019-01-30T11:00:41.922Z,2.40
2019-01-30T11:03:10.999Z,2.40
2019-01-30T11:05:40.161Z,2.50
2019-01-30T11:08:09.267Z,2.60
2019-01-30T11:10:38.515Z,2.70
2019-01-30T11:13:07.775Z,2.70
2019-01-30T11:15:36.902Z,2.80
2019-01-30T11:18:09.308Z,3.00
2019-01-30T11:20:38.750Z,2.90
2019-01-30T11:23:08.380Z,2.90
2019-01-30T11:25:38.319Z,2.90
2019-01-30T11:28:07.719Z,3.10
2019-01-30T11:30:36.642Z,3.20
2019-01-30T11:33:05.826Z,3.30
2019-01-30T11:35:35.220Z,3.30
2019-01-30T11:38:08.478Z,3.40
2019-01-30T11:40:38.450Z,3.30
2019-01-30T11:43:07.382Z,3.30
2019-01-30T11:45:38.499Z,3.30
2019-01-30T11:48:08.145Z,3.30
2019-01-30T11:50:38.457Z,3.30
2019-01-30T11:53:07.441Z,3.30
2019-01-30T11:55:38.911Z,3.20
2019-01-30T11:58:07.828Z,3.20
2019-01-30T12:00:55.793Z,3.10
2019-01-30T12:03:24.856Z,3.10
2019-01-30T12:05:54.341Z,3.10
2019-01-30T12:08:23.708Z,3.10
2019-01-30T12:10:52.783Z,3.10
2019-01-30T12:13:21.849Z,3.10
2019-01-30T12:15:50.905Z,3.20
2019-01-30T12:18:19.856Z,3.20
2019-01-30T12:20:51.750Z,3.20
2019-01-30T12:23:19.926Z,3.20
2019-01-30T12:25:48.964Z,3.20
2019-01-30T12:28:18.097Z,3.30
2019-01-30T12:30:47.208Z,3.30
2019-01-30T12:33:16.358Z,3.30
2019-01-30T12:35:45.416Z,3.40
2019-01-30T12:38:14.626Z,3.50
2019-01-30T12:40:43.750Z,3.50
2019-01-30T12:43:13.405Z,3.40
2019-01-30T12:45:42.612Z,3.40
2019-01-30T12:48:11.799Z,3.40
2019-01-30T12:50:41.106Z,3.40
2019-01-30T12:53:10.237Z,3.50
2019-01-30T12:55:39.631Z,3.50
2019-01-30T12:58:08.826Z,3.60
2019-01-30T13:00:40.599Z,3.60
2019-01-30T13:03:10.217Z,3.70
2019-01-30T13:05:39.832Z,3.70
2019-01-30T13:08:09.186Z,3.70
2019-01-30T13:10:38.531Z,3.70
2019-01-30T13:13:08.184Z,3.70
2019-01-30T13:15:37.241Z,3.60
2019-01-30T13:18:17.537Z,3.60
2019-01-30T13:20:37.580Z,3.70
2019-01-30T13:23:06.690Z,3.70
2019-01-30T13:25:36.127Z,3.70
2019-01-30T13:28:06.488Z,3.60
2019-01-30T13:30:38.325Z,3.60
2019-01-30T13:33:09.190Z,3.50
2019-01-30T13:35:38.228Z,3.40
2019-01-30T13:38:07.704Z,3.40
2019-01-30T13:40:38.895Z,3.30
2019-01-30T13:43:08.586Z,3.30
2019-01-30T13:45:37.675Z,3.20
2019-01-30T13:48:10.420Z,3.20
2019-01-30T13:50:39.745Z,3.10
2019-01-30T13:53:08.823Z,3.10
2019-01-30T13:55:37.951Z,3.10
2019-01-30T13:58:07.027Z,3.00
2019-01-30T14:00:36.979Z,3.00
2019-01-30T14:03:07.075Z,3.00
2019-01-30T14:05:36.103Z,3.00
2019-01-30T14:08:07.224Z,3.00
2019-01-30T14:10:36.327Z,3.00
2019-01-30T14:13:05.438Z,3.00
2019-01-30T14:15:35.304Z,3.00
2019-01-30T14:18:04.467Z,3.00
2019-01-30T14:20:33.537Z,2.90
2019-01-30T14:23:02.631Z,2.90
2019-01-30T14:25:31.731Z,2.80
2019-01-30T14:28:01.077Z,2.80
2019-01-30T14:30:32.387Z,2.80
2019-01-30T14:33:01.471Z,2.70
2019-01-30T14:35:33.089Z,2.70
2019-01-30T14:38:02.187Z,2.60
2019-01-30T14:40:31.229Z,2.60
2019-01-30T14:43:00.259Z,2.60
2019-01-30T14:45:29.325Z,2.70
2019-01-30T14:47:58.352Z,2.60
2019-01-30T14:50:27.498Z,2.60
2019-01-30T14:52:56.822Z,2.60
2019-01-30T14:55:25.901Z,2.50
2019-01-30T14:57:55.075Z,2.50
2019-01-30T15:00:29.481Z,2.40
2019-01-30T15:02:58.605Z,2.40
2019-01-30T15:05:28.012Z,2.30
2019-01-30T15:07:57.083Z,2.20
2019-01-30T15:10:27.036Z,2.20
2019-01-30T15:12:56.114Z,2.10
2019-01-30T15:15:27.268Z,2.00
2019-01-30T15:17:56.196Z,1.90
2019-01-30T15:20:30.329Z,1.90
2019-01-30T15:23:00.375Z,1.80
2019-01-30T15:25:29.916Z,1.80
2019-01-30T15:27:59.862Z,1.70
2019-01-30T15:30:35.034Z,1.70
2019-01-30T15:33:04.475Z,1.60
2019-01-30T15:35:34.393Z,1.50
2019-01-30T15:38:05.639Z,1.50
2019-01-30T15:40:34.751Z,1.50
2019-01-30T15:43:04.704Z,1.50
2019-01-30T15:45:34.828Z,1.40
2019-01-30T15:48:03.923Z,1.30
2019-01-30T15:50:34.406Z,1.20
2019-01-30T15:53:05.848Z,1.00
2019-01-30T15:55:35.239Z,1.00
2019-01-30T15:58:07.185Z,1.00
2019-01-30T16:00:44.807Z,1.00
2019-01-30T16:03:13.807Z,1.00
2019-01-30T16:05:45.099Z,1.00
2019-01-30T16:08:14.207Z,1.00
2019-01-30T16:10:43.325Z,1.00
2019-01-30T16:13:12.919Z,0.90
2019-01-30T16:15:45.154Z,0.80
2019-01-30T16:18:14.249Z,0.80
2019-01-30T16:20:43.283Z,0.80
2019-01-30T16:23:12.421Z,0.80
2019-01-30T16:25:41.451Z,0.80
2019-01-30T16:28:10.538Z,0.90
2019-01-30T16:30:42.215Z,0.90
2019-01-30T16:33:10.772Z,0.80
2019-01-30T16:35:39.882Z,0.90
2019-01-30T16:38:09.970Z,0.90
2019-01-30T16:40:39.071Z,0.90
2019-01-30T16:43:08.938Z,0.80
2019-01-30T16:45:38.460Z,0.80
2019-01-30T16:48:08.334Z,0.80
2019-01-30T16:50:37.345Z,0.80
2019-01-30T16:53:08.052Z,0.90
2019-01-30T16:55:38.035Z,0.80
2019-01-30T16:58:09.197Z,0.80
2019-01-30T17:00:38.369Z,0.80
2019-01-30T17:03:07.457Z,0.80
2019-01-30T17:05:36.751Z,0.80
2019-01-30T17:08:07.019Z,0.80
2019-01-30T17:10:36.399Z,0.80
2019-01-30T17:13:06.031Z,0.70
2019-01-30T17:15:35.527Z,0.80
2019-01-30T17:18:06.243Z,0.70
2019-01-30T17:20:36.984Z,0.70
2019-01-30T17:23:06.291Z,0.70
2019-01-30T17:25:35.452Z,0.80
2019-01-30T17:28:05.038Z,0.80
2019-01-30T17:30:39.936Z,0.90
2019-01-30T17:33:08.953Z,0.90
2019-01-30T17:35:39.147Z,1.00
2019-01-30T17:38:08.473Z,1.00
2019-01-30T17:40:37.823Z,1.00
2019-01-30T17:43:07.047Z,1.10
2019-01-30T17:45:36.263Z,1.20
2019-01-30T17:48:07.659Z,1.20
2019-01-30T17:50:37.066Z,1.20
2019-01-30T17:53:06.202Z,1.10
2019-01-30T17:55:35.527Z,1.10
2019-01-30T17:58:05.250Z,1.10
2019-01-30T18:00:47.066Z,1.10
2019-01-30T18:03:16.127Z,1.10
2019-01-30T18:05:45.371Z,1.20
2019-01-30T18:08:14.435Z,1.20
2019-01-30T18:10:43.479Z,1.20
2019-01-30T18:13:12.921Z,1.20
2019-01-30T18:15:41.985Z,1.20
2019-01-30T18:18:11.030Z,1.20
2019-01-30T18:20:40.004Z,1.20
2019-01-30T18:23:09.040Z,1.20
2019-01-30T18:25:38.355Z,1.20
2019-01-30T18:28:07.451Z,1.10
2019-01-30T18:30:36.455Z,1.00
2019-01-30T18:33:05.987Z,0.90
2019-01-30T18:35:34.952Z,0.90
2019-01-30T18:38:05.073Z,0.70
2019-01-30T18:40:34.338Z,0.60
2019-01-30T18:43:03.352Z,0.50
2019-01-30T18:45:32.337Z,0.40
2019-01-30T18:48:01.417Z,0.30
2019-01-30T18:50:30.614Z,0.40
2019-01-30T18:53:00.054Z,0.30
2019-01-30T18:55:31.042Z,0.30
2019-01-30T18:58:00.124Z,0.20
2019-01-30T19:00:37.599Z,0.20
2019-01-30T19:03:08.863Z,0.10
2019-01-30T19:05:37.940Z,0.00
2019-01-30T19:08:07.227Z,0.00
2019-01-30T19:10:36.317Z,0.00
2019-01-30T19:13:05.711Z,0.00
2019-01-30T19:15:34.623Z,0.00
2019-01-30T19:18:04.335Z,0.10
2019-01-30T19:20:37.215Z,0.00
2019-01-30T19:23:07.081Z,0.00
2019-01-30T19:25:37.083Z,0.00
2019-01-30T19:28:07.011Z,0.00
2019-01-30T19:30:36.139Z,0.00
2019-01-30T19:33:07.100Z,0.00
2019-01-30T19:35:36.038Z,-0.10
2019-01-30T19:38:05.482Z,0.00
2019-01-30T19:40:34.569Z,0.00
2019-01-30T19:43:04.930Z,-0.10
2019-01-30T19:45:33.955Z,0.00
2019-01-30T19:48:03.335Z,0.00
2019-01-30T19:50:32.391Z,0.00
2019-01-30T19:53:01.527Z,-0.10
2019-01-30T19:55:30.867Z,-0.10
2019-01-30T19:57:59.994Z,-0.10
2019-01-30T20:00:34.814Z,-0.10
2019-01-30T20:03:06.543Z,-0.10
2019-01-30T20:05:35.624Z,-0.10
2019-01-30T20:08:05.055Z,-0.20
2019-01-30T20:10:35.142Z,-0.10
2019-01-30T20:13:04.679Z,-0.10
2019-01-30T20:15:33.784Z,-0.20
2019-01-30T20:18:02.843Z,-0.20
2019-01-30T20:20:31.939Z,-0.30
2019-01-30T20:23:01.009Z,-0.30
2019-01-30T20:25:32.435Z,-0.30
2019-01-30T20:28:01.489Z,-0.40
2019-01-30T20:30:30.523Z,-0.40
2019-01-30T20:32:59.456Z,-0.40
2019-01-30T20:35:28.819Z,-0.30
2019-01-30T20:37:59.275Z,-0.30
2019-01-30T20:40:28.794Z,-0.40
2019-01-30T20:42:57.879Z,-0.40
2019-01-30T20:45:33.675Z,-0.50
2019-01-30T20:47:57.574Z,-0.50
2019-01-30T20:50:28.163Z,-0.50
2019-01-30T20:52:58.065Z,-0.50
2019-01-30T20:55:27.351Z,-0.50
2019-01-30T20:57:57.351Z,-0.50
2019-01-30T21:00:35.043Z,-0.40
2019-01-30T21:03:03.718Z,-0.40
2019-01-30T21:05:32.796Z,-0.40
2019-01-30T21:08:01.801Z,-0.40
2019-01-30T21:10:33.719Z,-0.30
2019-01-30T21:13:03.042Z,-0.30
2019-01-30T21:15:32.183Z,-0.30
2019-01-30T21:18:01.589Z,-0.40
2019-01-30T21:20:30.552Z,-0.40
2019-01-30T21:22:59.593Z,-0.50
2019-01-30T21:25:29.017Z,-0.50
2019-01-30T21:27:58.598Z,-0.50
2019-01-30T21:30:29.839Z,-0.40
2019-01-30T21:32:59.010Z,-0.40
2019-01-30T21:35:28.025Z,-0.50
2019-01-30T21:37:57.019Z,-0.40
2019-01-30T21:40:26.109Z,-0.40
2019-01-30T21:42:55.044Z,-0.40
2019-01-30T21:45:24.579Z,-0.40
2019-01-30T21:47:53.690Z,-0.30
2019-01-30T21:50:22.917Z,-0.30
2019-01-30T21:52:51.983Z,-0.30
2019-01-30T21:55:22.647Z,-0.30
2019-01-30T21:57:52.002Z,-0.40
2019-01-30T22:00:23.449Z,-0.40
2019-01-30T22:02:52.624Z,-0.50
2019-01-30T22:05:21.847Z,-0.50
2019-01-30T22:08:00.502Z,-0.50
2019-01-30T22:10:23.943Z,-0.40
2019-01-30T22:12:53.021Z,-0.40
2019-01-30T22:15:22.102Z,-0.40
2019-01-30T22:17:51.488Z,-0.40
2019-01-30T22:20:22.663Z,-0.50
2019-01-30T22:22:51.774Z,-0.60
2019-01-30T22:25:21.798Z,-0.60
2019-01-30T22:27:50.934Z,-0.50
2019-01-30T22:30:22.306Z,-0.50
2019-01-30T22:32:53.735Z,-0.50
2019-01-30T22:35:22.956Z,-0.40
2019-01-30T22:37:51.874Z,-0.40
2019-01-30T22:40:21.538Z,-0.40
2019-01-30T22:42:50.532Z,-0.40
2019-01-30T22:45:19.955Z,-0.30
2019-01-30T22:47:49.283Z,-0.30
2019-01-30T22:50:19.975Z,-0.30
2019-01-30T22:52:49.053Z,-0.40
2019-01-30T22:55:19.895Z,-0.40
2019-01-30T22:57:51.009Z,-0.40
2019-01-30T23:00:51.703Z,-0.50
2019-01-30T23:03:23.928Z,-0.50
2019-01-30T23:06:15.133Z,-0.60
2019-01-30T23:09:22.402Z,-0.60
2019-01-30T23:12:27.108Z,-0.60
2019-01-30T23:15:05.152Z,-0.70
2019-01-30T23:17:44.443Z,-0.70
2019-01-30T23:20:22.832Z,-0.70
2019-01-30T23:23:17.586Z,-0.60
2019-01-30T23:26:18.994Z,-0.60
2019-01-30T23:29:10.326Z,-0.70
2019-01-30T23:32:20.649Z,-0.70
2019-01-30T23:35:29.842Z,-0.80
2019-01-30T23:38:34.286Z,-0.80
2019-01-30T23:41:30.597Z,-0.70
2019-01-30T23:44:22.903Z,-0.70
2019-01-30T23:47:24.680Z,-0.70
2019-01-30T23:50:13.423Z,-0.70
2019-01-30T23:53:17.511Z,-0.60
2019-01-30T23:55:57.936Z,-0.60
2019-01-30T23:58:56.963Z,-0.50
